Time;durP1;ratioP1;P1;durP2;ratioP2;P2;SDS_P1;SDS_P2;PMS_P1;PMS_P2;Temp;Humidity;BMP_temperature;BMP_pressure;BME280_temperature;BME280_humidity;BME280_pressure;Samples;Min_cycle;Max_cycle;Signal;HPM_P1;HPM_P2
2021/12/18 00:00:36;;;;;;;7.40;3.92;;;2.90;98.40;;;;;;5053804;28;20411;-72
2021/12/18 00:03:03;;;;;;;9.45;5.43;;;3.00;98.20;;;;;;5064520;28;20423;-72
2021/12/18 00:05:28;;;;;;;10.10;5.53;;;2.90;98.30;;;;;;5055186;28;20025;-72
2021/12/18 00:07:54;;;;;;;10.63;4.15;;;3.30;97.80;;;;;;5061558;28;20403;-72
2021/12/18 00:10:23;;;;;;;7.53;3.70;;;3.30;97.40;;;;;;5064503;28;20060;-72
2021/12/18 00:12:49;;;;;;;18.35;9.48;;;3.40;97.30;;;;;;5064632;28;20027;-73
2021/12/18 00:15:23;;;;;;;17.23;9.80;;;3.20;98.00;;;;;;5059675;28;20406;-72
2021/12/18 00:17:48;;;;;;;15.95;8.85;;;2.90;98.40;;;;;;5044991;28;20029;-72
2021/12/18 00:20:16;;;;;;;12.02;6.63;;;2.80;98.60;;;;;;5050189;28;20020;-72
2021/12/18 00:22:43;;;;;;;14.23;6.03;;;2.80;98.60;;;;;;5062403;28;20032;-72
2021/12/18 00:25:10;;;;;;;9.93;5.65;;;2.80;98.50;;;;;;5062850;28;20107;-72
2021/12/18 00:27:36;;;;;;;10.07;5.18;;;2.70;98.80;;;;;;5052795;28;20052;-73
2021/12/18 00:30:04;;;;;;;7.72;3.80;;;2.80;98.80;;;;;;5053998;28;20028;-72
2021/12/18 00:32:30;;;;;;;7.30;3.92;;;3.10;98.00;;;;;;5044163;28;20088;-72
2021/12/18 00:34:56;;;;;;;6.47;3.28;;;3.40;97.40;;;;;;5055895;28;20661;-72
2021/12/18 00:37:22;;;;;;;6.10;2.60;;;3.90;96.10;;;;;;5049762;28;20027;-72
2021/12/18 00:39:56;;;;;;;5.07;2.38;;;4.50;94.90;;;;;;5048238;28;20029;-72
2021/12/18 00:45:14;;;;;;;8.23;4.00;;;4.40;95.40;;;;;;5046404;28;20565;-72
2021/12/18 00:47:40;;;;;;;7.03;3.85;;;3.60;96.60;;;;;;5043881;28;20517;-73
2021/12/18 00:50:10;;;;;;;11.30;4.30;;;3.40;97.00;;;;;;5058249;28;20028;-72
2021/12/18 00:52:35;;;;;;;10.00;5.00;;;3.00;97.50;;;;;;5057993;28;20032;-72
2021/12/18 00:55:01;;;;;;;8.20;4.93;;;2.90;98.10;;;;;;5057305;28;20028;-73
2021/12/18 00:57:27;;;;;;;12.73;5.60;;;2.60;98.80;;;;;;5063979;28;20033;-72
2021/12/18 00:59:58;;;;;;;10.98;6.40;;;2.70;98.80;;;;;;5049803;28;20549;-73
2021/12/18 01:02:24;;;;;;;13.25;6.65;;;2.70;98.80;;;;;;5054642;28;20100;-73
2021/12/18 01:04:50;;;;;;;14.70;8.38;;;2.70;98.90;;;;;;5054197;28;20033;-72
2021/12/18 01:07:15;;;;;;;17.08;9.95;;;2.60;99.10;;;;;;5067924;28;20068;-72
2021/12/18 01:12:10;;;;;;;12.68;8.02;;;2.60;99.00;;;;;;5053733;28;20068;-72
2021/12/18 01:14:50;;;;;;;8.82;4.82;;;2.70;98.80;;;;;;5055657;28;20468;-72
2021/12/18 01:22:48;;;;;;;5.50;2.45;;;3.10;97.70;;;;;;5053940;28;20064;-72
2021/12/18 01:25:16;;;;;;;7.05;3.05;;;3.10;97.20;;;;;;5056724;28;20390;-72
2021/12/18 01:27:42;;;;;;;9.25;3.60;;;3.20;97.00;;;;;;5068173;28;20383;-72
2021/12/18 01:30:10;;;;;;;8.98;4.78;;;2.90;97.80;;;;;;5063403;28;20030;-72
2021/12/18 01:32:36;;;;;;;8.73;4.88;;;2.70;98.20;;;;;;5056525;28;20037;-72
2021/12/18 01:35:03;;;;;;;10.63;5.93;;;2.50;98.60;;;;;;5058111;28;20033;-72
2021/12/18 01:37:29;;;;;;;8.52;4.82;;;2.40;99.10;;;;;;5060261;28;20029;-72
2021/12/18 01:39:55;;;;;;;8.85;4.88;;;2.40;99.20;;;;;;5066519;28;20063;-73
2021/12/18 01:45:19;;;;;;;11.60;7.70;;;2.20;99.60;;;;;;5056943;28;20037;-72
2021/12/18 01:53:18;;;;;;;10.03;5.00;;;2.40;99.60;;;;;;5051547;28;20035;-72
2021/12/18 01:55:44;;;;;;;10.63;4.72;;;2.40;99.90;;;;;;5063822;28;20562;-72
2021/12/18 01:58:10;;;;;;;13.00;7.38;;;2.40;99.60;;;;;;5052447;28;20044;-72
2021/12/18 02:00:41;;;;;;;13.27;6.30;;;2.30;99.70;;;;;;5051041;28;20112;-72
2021/12/18 02:03:07;;;;;;;10.93;6.60;;;2.20;99.60;;;;;;5052629;28;20044;-72
2021/12/18 02:05:33;;;;;;;6.82;2.45;;;2.60;98.90;;;;;;5061207;28;20029;-72
2021/12/18 02:07:59;;;;;;;3.45;1.67;;;2.90;97.70;;;;;;5058457;28;20031;-72
2021/12/18 02:10:29;;;;;;;5.10;1.60;;;3.10;97.30;;;;;;5066676;28;20118;-72
2021/12/18 02:13:06;;;;;;;5.30;2.40;;;3.10;97.10;;;;;;5058849;28;20035;-72
2021/12/18 02:21:07;;;;;;;4.05;1.92;;;3.10;97.70;;;;;;5061312;28;20510;-71
2021/12/18 02:23:36;;;;;;;3.95;1.95;;;2.80;97.80;;;;;;5051547;28;20037;-72
2021/12/18 02:26:02;;;;;;;4.07;1.92;;;2.70;97.80;;;;;;5054864;28;20057;-72
2021/12/18 02:28:28;;;;;;;5.60;2.60;;;2.40;98.00;;;;;;5054428;28;20029;-72
2021/12/18 02:30:55;;;;;;;7.50;3.88;;;2.40;98.40;;;;;;5053029;28;20479;-72
2021/12/18 02:33:22;;;;;;;8.32;3.95;;;2.30;99.00;;;;;;5058789;28;20119;-72
2021/12/18 02:35:53;;;;;;;4.90;2.25;;;2.10;99.30;;;;;;5058096;28;20052;-72
2021/12/18 02:38:31;;;;;;;4.18;1.58;;;2.20;99.70;;;;;;5065299;28;20383;-72
2021/12/18 02:41:45;;;;;;;3.63;1.65;;;2.20;99.50;;;;;;5057851;28;20495;-72
2021/12/18 02:43:47;;;;;;;4.22;1.90;;;2.20;98.90;;;;;;5052333;28;20056;-72
2021/12/18 02:46:17;;;;;;;3.90;1.60;;;2.10;98.90;;;;;;5059345;28;20028;-72
2021/12/18 02:48:43;;;;;;;4.05;1.85;;;2.10;98.80;;;;;;5063450;28;20128;-72
2021/12/18 02:51:11;;;;;;;4.78;2.40;;;2.00;99.10;;;;;;5066030;28;20499;-72
2021/12/18 02:53:40;;;;;;;5.05;1.42;;;2.00;99.40;;;;;;5044424;28;20506;-72
2021/12/18 02:56:08;;;;;;;4.97;2.25;;;2.10;99.90;;;;;;5053705;28;20468;-72
2021/12/18 02:58:40;;;;;;;7.35;4.10;;;2.00;99.90;;;;;;5067254;28;20029;-72
2021/12/18 03:01:08;;;;;;;4.32;2.42;;;2.20;99.60;;;;;;5071527;28;20037;-72
2021/12/18 03:03:37;;;;;;;5.45;2.38;;;2.00;99.50;;;;;;5050749;28;20041;-72
2021/12/18 03:08:43;;;;;;;5.90;2.63;;;2.00;99.80;;;;;;5049993;28;20114;-72
2021/12/18 03:24:58;;;;;;;8.45;4.50;;;1.40;99.90;;;;;;5052031;28;20099;-72
2021/12/18 03:27:25;;;;;;;6.85;4.00;;;1.50;99.90;;;;;;5051347;28;20570;-72
2021/12/18 03:29:51;;;;;;;8.32;4.53;;;1.60;99.90;;;;;;5052318;28;20078;-72
2021/12/18 03:32:17;;;;;;;8.68;4.18;;;1.60;99.90;;;;;;5062213;28;20040;-73
2021/12/18 03:34:44;;;;;;;8.10;4.57;;;1.60;99.90;;;;;;5056585;28;20033;-72
2021/12/18 03:37:09;;;;;;;10.15;4.00;;;1.40;99.90;;;;;;5052921;28;20047;-73
2021/12/18 03:39:36;;;;;;;9.77;4.53;;;1.40;99.90;;;;;;5068768;28;20024;-72
2021/12/18 03:42:04;;;;;;;7.68;4.07;;;1.50;99.90;;;;;;5051345;28;20052;-72
2021/12/18 03:44:30;;;;;;;8.38;4.40;;;1.50;99.90;;;;;;5051282;28;20029;-72
2021/12/18 03:46:56;;;;;;;6.82;3.97;;;1.70;99.90;;;;;;5057882;28;20045;-72
2021/12/18 03:49:22;;;;;;;6.10;3.22;;;1.70;99.90;;;;;;5051251;28;20037;-72
2021/12/18 03:51:48;;;;;;;7.53;4.00;;;1.70;99.90;;;;;;5068720;28;20021;-72
2021/12/18 03:54:13;;;;;;;9.55;4.40;;;1.60;99.90;;;;;;5053836;28;20040;-72
2021/12/18 03:56:39;;;;;;;7.82;4.13;;;1.50;99.90;;;;;;5063602;28;20569;-72
2021/12/18 03:59:05;;;;;;;7.95;3.88;;;1.40;99.90;;;;;;5060785;28;20487;-72
2021/12/18 04:01:31;;;;;;;6.97;3.95;;;1.50;99.90;;;;;;5050955;28;20111;-71
2021/12/18 04:03:56;;;;;;;7.30;3.50;;;1.50;99.90;;;;;;5057916;28;20094;-71
2021/12/18 04:06:22;;;;;;;8.77;3.72;;;1.60;99.90;;;;;;5042009;28;20538;-71
2021/12/18 04:08:48;;;;;;;7.15;3.75;;;1.60;99.90;;;;;;5041599;28;20040;-71
2021/12/18 04:11:14;;;;;;;8.10;3.78;;;1.70;99.90;;;;;;5050486;28;20032;-71
2021/12/18 04:13:44;;;;;;;6.18;3.00;;;1.90;99.90;;;;;;5043131;28;20037;-71
2021/12/18 04:16:10;;;;;;;6.32;2.75;;;1.90;99.90;;;;;;5051658;28;20654;-71
2021/12/18 04:18:36;;;;;;;5.18;2.80;;;1.90;99.50;;;;;;5046840;28;20021;-71
2021/12/18 04:21:02;;;;;;;6.80;2.13;;;2.00;99.20;;;;;;5042985;28;20040;-71
2021/12/18 04:23:28;;;;;;;8.18;3.17;;;2.00;99.20;;;;;;5057559;28;20080;-71
2021/12/18 04:25:55;;;;;;;7.57;2.97;;;1.90;99.30;;;;;;5052799;28;20368;-71
2021/12/18 04:28:21;;;;;;;5.75;2.80;;;1.90;99.60;;;;;;5049658;28;20028;-71
2021/12/18 04:30:47;;;;;;;4.25;2.40;;;1.80;99.90;;;;;;5054855;28;20103;-71
2021/12/18 04:33:13;;;;;;;7.22;3.70;;;1.80;99.90;;;;;;5050131;28;20162;-71
2021/12/18 04:35:39;;;;;;;7.18;3.00;;;1.60;99.90;;;;;;5059838;28;20032;-71
2021/12/18 04:38:05;;;;;;;6.88;3.15;;;1.60;99.90;;;;;;5069790;28;20037;-71
2021/12/18 04:40:30;;;;;;;7.30;3.58;;;1.60;99.90;;;;;;5059954;28;20768;-71
2021/12/18 04:42:56;;;;;;;8.27;3.53;;;1.80;99.90;;;;;;5050976;28;20036;-71
2021/12/18 04:45:23;;;;;;;6.53;3.58;;;1.70;99.90;;;;;;5055932;28;20130;-71
2021/12/18 04:47:49;;;;;;;6.88;3.83;;;1.90;99.70;;;;;;5063273;28;20143;-71
2021/12/18 04:50:15;;;;;;;5.70;2.92;;;2.00;99.50;;;;;;5050902;28;20107;-71
2021/12/18 04:52:40;;;;;;;7.00;3.88;;;1.90;99.70;;;;;;5060987;28;20040;-71
2021/12/18 04:55:07;;;;;;;6.43;3.30;;;1.90;99.50;;;;;;5049389;28;20025;-71
2021/12/18 04:57:33;;;;;;;5.38;3.53;;;1.90;99.40;;;;;;5049449;28;20025;-71
2021/12/18 04:59:58;;;;;;;5.00;2.78;;;1.80;99.60;;;;;;5056190;28;20033;-71
2021/12/18 05:02:35;;;;;;;10.43;3.85;;;1.90;99.50;;;;;;5061955;28;20107;-71
2021/12/18 05:05:00;;;;;;;7.50;2.75;;;2.00;99.40;;;;;;5049622;28;20029;-71
2021/12/18 05:07:27;;;;;;;5.05;2.72;;;1.90;99.50;;;;;;5044656;28;20025;-71
2021/12/18 05:09:53;;;;;;;9.00;2.90;;;2.00;99.20;;;;;;5047802;28;20031;-71
2021/12/18 05:15:41;;;;;;;4.15;2.30;;;1.90;99.40;;;;;;5055782;28;20040;-71
2021/12/18 05:18:07;;;;;;;5.95;2.67;;;1.80;99.60;;;;;;5062594;28;20025;-70
2021/12/18 05:20:32;;;;;;;5.57;2.95;;;1.60;99.90;;;;;;5064575;28;20729;-70
2021/12/18 05:22:58;;;;;;;6.97;2.72;;;1.60;99.90;;;;;;5044718;28;20037;-70
2021/12/18 05:25:24;;;;;;;8.02;4.25;;;1.70;99.90;;;;;;5056203;28;20086;-70
2021/12/18 05:27:49;;;;;;;7.28;3.60;;;1.80;99.80;;;;;;5066606;28;20405;-71
2021/12/18 05:30:15;;;;;;;7.30;4.63;;;1.90;99.80;;;;;;5057620;28;20459;-71
2021/12/18 05:32:41;;;;;;;6.32;3.45;;;1.90;99.50;;;;;;5047098;28;20116;-71
2021/12/18 05:35:07;;;;;;;6.70;3.80;;;1.80;99.70;;;;;;5053741;28;20107;-70
2021/12/18 05:40:08;;;;;;;7.10;3.58;;;1.90;99.70;;;;;;5047124;28;20491;-70
2021/12/18 05:42:34;;;;;;;7.30;3.05;;;1.80;99.90;;;;;;5047285;28;20527;-70
2021/12/18 05:45:00;;;;;;;7.55;3.38;;;1.70;99.90;;;;;;5055790;28;20107;-71
2021/12/18 05:47:25;;;;;;;6.22;2.92;;;1.80;99.60;;;;;;5045794;28;20053;-70
2021/12/18 05:49:51;;;;;;;6.63;2.72;;;1.80;99.90;;;;;;5061042;28;20059;-71
2021/12/18 05:52:17;;;;;;;10.05;3.70;;;1.80;99.90;;;;;;5065944;28;20475;-71
2021/12/18 05:54:43;;;;;;;5.70;3.15;;;1.90;99.60;;;;;;5059919;28;20056;-71
2021/12/18 05:57:10;;;;;;;6.50;2.63;;;2.00;99.30;;;;;;5049628;28;20051;-70
2021/12/18 05:59:36;;;;;;;5.53;2.90;;;2.00;99.20;;;;;;5045948;28;20488;-71
2021/12/18 06:02:02;;;;;;;8.82;3.97;;;1.90;99.50;;;;;;5045624;28;20036;-70
2021/12/18 06:04:27;;;;;;;10.48;3.45;;;1.80;99.40;;;;;;5045901;28;20664;-71
2021/12/18 06:07:03;;;;;;;7.55;4.00;;;1.80;99.40;;;;;;5046215;28;20036;-71
2021/12/18 06:09:29;;;;;;;5.07;2.75;;;1.80;99.50;;;;;;5046646;28;21245;-71
2021/12/18 06:11:54;;;;;;;7.32;3.30;;;1.60;99.60;;;;;;5045879;28;20037;-71
2021/12/18 06:14:20;;;;;;;6.28;2.75;;;1.50;99.90;;;;;;5056251;28;20470;-71
2021/12/18 06:16:45;;;;;;;8.35;3.40;;;1.60;99.90;;;;;;5046768;28;20061;-71
2021/12/18 06:19:11;;;;;;;6.82;3.10;;;1.50;99.90;;;;;;5052141;28;20032;-71
2021/12/18 06:21:37;;;;;;;6.18;3.13;;;1.60;99.90;;;;;;5057839;28;20095;-70
2021/12/18 06:24:03;;;;;;;7.25;3.55;;;1.70;99.90;;;;;;5051786;28;20037;-71
2021/12/18 06:26:28;;;;;;;7.00;3.38;;;1.50;99.90;;;;;;5050738;28;20060;-70
2021/12/18 06:28:55;;;;;;;5.28;3.08;;;1.50;99.90;;;;;;5057850;28;20100;-70
2021/12/18 06:31:21;;;;;;;4.75;2.55;;;1.50;99.90;;;;;;5045240;28;20463;-70
2021/12/18 06:33:47;;;;;;;4.72;2.40;;;1.40;99.90;;;;;;5045764;28;20082;-70
2021/12/18 06:36:12;;;;;;;5.72;2.28;;;1.50;99.90;;;;;;5044917;28;20666;-70
2021/12/18 06:38:38;;;;;;;5.47;2.17;;;1.50;99.90;;;;;;5056901;28;20042;-70
2021/12/18 06:41:04;;;;;;;7.80;2.67;;;1.60;99.90;;;;;;5063078;28;20066;-70
2021/12/18 06:43:30;;;;;;;5.10;2.33;;;1.60;99.40;;;;;;5051530;28;20084;-71
2021/12/18 06:45:55;;;;;;;5.57;2.40;;;1.80;99.40;;;;;;5044955;28;20025;-70
2021/12/18 06:48:21;;;;;;;9.20;2.55;;;1.70;99.20;;;;;;5047180;28;20048;-70
2021/12/18 06:50:47;;;;;;;4.38;2.22;;;1.70;99.10;;;;;;5044483;28;20553;-71
2021/12/18 06:53:13;;;;;;;7.68;2.90;;;1.70;99.10;;;;;;5050691;28;20552;-71
2021/12/18 06:55:38;;;;;;;6.90;2.75;;;1.80;98.80;;;;;;5054833;28;20524;-71
2021/12/18 06:58:04;;;;;;;5.68;2.30;;;2.00;98.40;;;;;;5046145;28;20352;-71
2021/12/18 07:00:30;;;;;;;10.32;2.63;;;2.10;98.50;;;;;;5053256;28;20086;-71
2021/12/18 07:02:56;;;;;;;4.40;2.47;;;1.90;98.60;;;;;;5045136;28;20017;-71
2021/12/18 07:05:22;;;;;;;3.42;1.75;;;1.80;98.40;;;;;;5044154;28;20441;-71
2021/12/18 07:07:50;;;;;;;15.60;7.63;;;1.80;98.50;;;;;;5044836;28;20033;-71
2021/12/18 07:10:16;;;;;;;13.48;5.65;;;1.90;98.30;;;;;;5044708;28;20032;-70
2021/12/18 07:12:42;;;;;;;7.20;3.63;;;1.90;98.50;;;;;;5045350;28;20035;-71
2021/12/18 07:15:11;;;;;;;5.60;2.67;;;1.80;98.30;;;;;;5059858;28;20135;-71
2021/12/18 07:17:37;;;;;;;5.00;2.85;;;1.80;98.60;;;;;;5045050;28;20047;-71
2021/12/18 07:20:05;;;;;;;6.53;3.67;;;2.00;98.50;;;;;;5047107;28;20036;-70
2021/12/18 07:22:31;;;;;;;5.10;2.75;;;1.90;98.50;;;;;;5044062;28;20039;-71
2021/12/18 07:24:56;;;;;;;8.18;3.05;;;2.00;98.70;;;;;;5042684;28;20403;-71
2021/12/18 07:27:22;;;;;;;6.85;3.25;;;2.20;98.40;;;;;;5043246;28;20025;-70
2021/12/18 07:29:48;;;;;;;6.25;4.22;;;2.40;98.10;;;;;;5045429;28;20787;-70
2021/12/18 07:32:14;;;;;;;11.43;7.85;;;2.40;97.80;;;;;;5057915;28;20372;-70
2021/12/18 07:34:39;;;;;;;6.07;3.45;;;2.50;98.00;;;;;;5052455;28;20077;-70
2021/12/18 07:37:05;;;;;;;5.70;2.38;;;2.40;98.10;;;;;;5047839;28;20029;-70
2021/12/18 07:39:31;;;;;;;5.65;2.05;;;2.60;97.60;;;;;;5059708;28;20060;-71
2021/12/18 07:41:56;;;;;;;6.13;2.35;;;3.00;96.50;;;;;;5059295;28;20025;-70
2021/12/18 07:44:22;;;;;;;7.60;2.50;;;2.90;96.90;;;;;;5042965;28;20048;-71
2021/12/18 07:46:48;;;;;;;5.70;2.97;;;2.80;97.30;;;;;;5048293;28;20439;-71
2021/12/18 07:49:14;;;;;;;6.57;3.05;;;2.60;97.40;;;;;;5039301;28;20575;-71
2021/12/18 07:51:40;;;;;;;5.55;3.00;;;2.40;97.70;;;;;;5047685;28;20709;-71
2021/12/18 07:54:06;;;;;;;7.35;3.30;;;2.20;98.00;;;;;;5043796;28;20041;-71
2021/12/18 07:56:33;;;;;;;6.82;3.45;;;2.10;98.60;;;;;;5051006;28;20947;-71
2021/12/18 07:59:00;;;;;;;6.10;2.50;;;2.00;98.60;;;;;;5050237;28;20021;-71
2021/12/18 08:01:25;;;;;;;5.53;3.00;;;1.90;99.00;;;;;;5056915;28;20617;-72
2021/12/18 08:03:51;;;;;;;5.43;2.60;;;2.00;99.10;;;;;;5043065;28;20047;-73
2021/12/18 08:06:20;;;;;;;5.22;2.72;;;2.10;99.00;;;;;;5054669;28;20024;-73
2021/12/18 08:08:46;;;;;;;6.32;3.38;;;1.90;99.20;;;;;;5045074;28;20028;-73
2021/12/18 08:11:12;;;;;;;6.63;3.00;;;1.90;99.00;;;;;;5062728;28;20111;-73
2021/12/18 08:13:38;;;;;;;5.60;3.08;;;2.20;98.40;;;;;;5057198;28;20108;-73
2021/12/18 08:16:04;;;;;;;7.22;3.58;;;2.30;98.40;;;;;;5065513;28;20041;-73
2021/12/18 08:18:31;;;;;;;10.25;5.47;;;2.30;98.40;;;;;;5062712;28;20034;-73
2021/12/18 08:20:56;;;;;;;5.57;3.22;;;2.30;98.20;;;;;;5059248;28;20033;-73
2021/12/18 08:23:22;;;;;;;5.93;3.20;;;2.30;98.20;;;;;;5059019;28;20069;-73
2021/12/18 08:25:48;;;;;;;5.53;3.15;;;2.60;98.10;;;;;;5050619;28;20067;-73
2021/12/18 08:28:14;;;;;;;7.93;3.33;;;2.50;97.90;;;;;;5050142;28;20033;-73
2021/12/18 08:30:40;;;;;;;5.00;2.50;;;2.40;98.30;;;;;;5050116;28;20033;-73
2021/12/18 08:33:06;;;;;;;8.50;2.83;;;2.30;98.60;;;;;;5052351;28;20041;-73
2021/12/18 08:35:33;;;;;;;5.85;2.83;;;2.10;98.70;;;;;;5049900;28;20099;-74
2021/12/18 08:38:00;;;;;;;7.47;3.63;;;2.10;99.20;;;;;;5050448;28;20025;-73
2021/12/18 08:40:27;;;;;;;5.78;2.92;;;2.00;99.30;;;;;;5049421;28;20029;-73
2021/12/18 08:42:54;;;;;;;7.22;3.10;;;2.00;99.30;;;;;;5049437;28;20468;-73
2021/12/18 08:45:20;;;;;;;7.45;4.70;;;2.00;99.30;;;;;;5049169;28;20045;-73
2021/12/18 08:47:46;;;;;;;7.25;3.53;;;2.10;99.40;;;;;;5049879;28;20032;-73
2021/12/18 08:50:16;;;;;;;6.80;3.45;;;2.50;98.40;;;;;;5050020;28;20055;-73
2021/12/18 08:52:42;;;;;;;6.63;3.90;;;2.70;97.90;;;;;;5053324;28;20032;-73
2021/12/18 08:55:10;;;;;;;10.50;4.00;;;2.60;98.10;;;;;;5062842;28;20039;-72
2021/12/18 08:57:36;;;;;;;10.38;4.18;;;2.70;97.80;;;;;;5062929;28;20024;-72
2021/12/18 09:00:03;;;;;;;7.20;4.32;;;2.60;98.10;;;;;;5044176;28;20649;-73
2021/12/18 09:02:29;;;;;;;9.07;4.35;;;2.40;98.50;;;;;;5049701;28;20031;-71
2021/12/18 09:04:55;;;;;;;14.13;5.15;;;2.40;98.80;;;;;;5049196;28;20032;-72
2021/12/18 09:07:22;;;;;;;12.30;5.68;;;2.40;99.00;;;;;;5049818;28;20090;-71
2021/12/18 09:09:48;;;;;;;10.13;4.82;;;2.40;98.90;;;;;;5050556;28;20098;-71
2021/12/18 09:12:14;;;;;;;11.23;5.32;;;2.30;99.00;;;;;;5049745;28;20491;-71
2021/12/18 09:14:40;;;;;;;8.45;4.13;;;2.20;99.00;;;;;;5049894;28;20039;-71
2021/12/18 09:17:06;;;;;;;10.40;4.75;;;2.10;99.10;;;;;;5050212;28;20063;-71
2021/12/18 09:19:32;;;;;;;9.75;4.90;;;2.10;99.10;;;;;;5049228;28;20025;-71
2021/12/18 09:21:59;;;;;;;10.35;4.70;;;2.10;99.30;;;;;;5058332;28;20032;-71
2021/12/18 09:24:25;;;;;;;7.53;3.40;;;2.10;99.60;;;;;;5048141;28;20384;-71
2021/12/18 09:26:51;;;;;;;6.25;3.13;;;2.10;99.90;;;;;;5045866;28;20029;-71
2021/12/18 09:29:18;;;;;;;5.88;2.78;;;2.50;98.50;;;;;;5063352;28;20106;-71
2021/12/18 09:31:44;;;;;;;5.47;3.15;;;2.90;97.80;;;;;;5055379;28;20048;-71
2021/12/18 09:34:10;;;;;;;6.03;2.47;;;3.10;97.20;;;;;;5062940;28;20078;-71
2021/12/18 09:36:36;;;;;;;7.32;2.95;;;3.00;97.20;;;;;;5054053;28;20074;-72
2021/12/18 09:39:03;;;;;;;6.38;3.45;;;3.10;97.20;;;;;;5046488;28;20509;-71
2021/12/18 09:41:29;;;;;;;7.60;3.50;;;3.00;97.60;;;;;;5054886;28;20028;-71
2021/12/18 09:43:54;;;;;;;7.97;4.15;;;3.10;97.10;;;;;;5046361;28;20029;-71
2021/12/18 09:46:20;;;;;;;7.93;3.97;;;3.20;96.80;;;;;;5056829;28;20040;-72
2021/12/18 09:48:46;;;;;;;6.45;3.53;;;3.30;96.90;;;;;;5058592;28;20449;-72
2021/12/18 09:51:22;;;;;;;7.18;3.88;;;3.00;97.20;;;;;;5059461;28;20032;-72
2021/12/18 09:53:50;;;;;;;6.30;3.58;;;2.90;97.40;;;;;;5065868;28;20016;-72
2021/12/18 09:56:16;;;;;;;4.47;2.80;;;2.80;97.80;;;;;;5055084;28;20052;-71
2021/12/18 09:58:41;;;;;;;8.20;3.50;;;2.70;97.90;;;;;;5057712;28;20533;-72
2021/12/18 10:01:07;;;;;;;6.25;3.30;;;2.70;98.20;;;;;;5062787;28;20095;-71
2021/12/18 10:03:52;;;;;;;6.90;2.97;;;2.70;98.00;;;;;;5065003;28;20379;-71
2021/12/18 10:06:39;;;;;;;;;;;2.60;98.10;;;;;;5065349;28;20032;-72
2021/12/18 10:09:28;;;;;;;5.90;2.80;;;2.60;98.00;;;;;;5046570;28;20009;-71
2021/12/18 10:11:56;;;;;;;6.90;3.17;;;2.70;98.00;;;;;;5045059;28;20021;-71
2021/12/18 10:14:55;;;;;;;6.03;2.78;;;2.70;98.00;;;;;;5055049;28;20043;-72
2021/12/18 10:17:21;;;;;;;5.82;2.75;;;3.00;97.20;;;;;;5051243;28;20056;-72
2021/12/18 10:19:47;;;;;;;5.80;2.35;;;3.20;96.80;;;;;;5045703;28;20025;-72
2021/12/18 10:22:13;;;;;;;3.95;2.28;;;3.30;96.50;;;;;;5062442;28;20036;-72
2021/12/18 10:24:41;;;;;;;4.50;1.80;;;3.40;96.20;;;;;;5064925;28;20040;-72
2021/12/18 10:27:22;;;;;;;4.40;2.00;;;3.50;96.00;;;;;;5048488;28;20036;-72
2021/12/18 10:29:51;;;;;;;5.38;2.60;;;3.70;95.40;;;;;;5045444;28;20037;-72
2021/12/18 10:32:19;;;;;;;3.90;2.03;;;3.60;95.60;;;;;;5058244;28;20029;-72
2021/12/18 10:34:56;;;;;;;5.70;2.30;;;3.60;95.40;;;;;;5067801;28;20033;-71
2021/12/18 10:37:30;;;;;;;4.82;2.10;;;3.70;95.50;;;;;;5054944;28;20025;-70
2021/12/18 10:40:07;;;;;;;6.82;1.95;;;3.60;95.80;;;;;;5068410;28;20032;-72
2021/12/18 10:42:42;;;;;;;4.38;2.03;;;3.80;95.00;;;;;;5065197;28;20263;-71
2021/12/18 10:45:13;;;;;;;4.60;2.00;;;4.00;94.60;;;;;;5047468;28;20048;-72
2021/12/18 10:47:47;;;;;;;3.60;1.85;;;4.10;94.50;;;;;;5048116;28;20499;-71
2021/12/18 10:50:21;;;;;;;4.80;1.73;;;4.10;94.50;;;;;;5065178;28;20055;-71
2021/12/18 10:53:01;;;;;;;9.27;2.17;;;4.10;94.60;;;;;;5051493;28;20040;-72
2021/12/18 10:55:29;;;;;;;3.70;1.77;;;4.40;96.30;;;;;;5051459;28;20274;-72
2021/12/18 10:57:55;;;;;;;5.40;2.00;;;4.30;95.90;;;;;;5051231;28;20040;-72
2021/12/18 11:00:50;;;;;;;5.03;2.05;;;4.30;95.40;;;;;;5064750;28;20033;-71
2021/12/18 11:03:24;;;;;;;5.70;3.13;;;4.40;94.90;;;;;;5048543;28;20045;-73
2021/12/18 11:06:05;;;;;;;5.80;2.65;;;4.40;95.20;;;;;;5049447;28;20074;-72
2021/12/18 11:08:32;;;;;;;5.30;2.33;;;4.60;94.40;;;;;;5047199;28;20055;-70
2021/12/18 11:13:38;;;;;;;6.22;2.15;;;4.70;94.60;;;;;;5047444;28;20025;-71
2021/12/18 11:14:14;;;;;;;7.45;3.30;;;4.90;94.20;;;;;;5046840;28;20529;-71
2021/12/18 11:16:43;;;;;;;8.13;3.72;;;5.00;94.90;;;;;;5049299;28;20431;-70
2021/12/18 11:19:13;;;;;;;10.65;5.82;;;4.90;95.60;;;;;;5055097;28;20090;-72
2021/12/18 11:21:54;;;;;;;10.65;6.15;;;4.90;96.50;;;;;;5055782;28;20025;-72
2021/12/18 11:24:22;;;;;;;10.18;5.90;;;5.40;98.70;;;;;;5053599;28;20052;-72
2021/12/18 11:26:58;;;;;;;7.70;5.00;;;5.30;96.00;;;;;;5055233;28;20089;-71
2021/12/18 11:29:44;;;;;;;10.48;5.18;;;5.10;96.20;;;;;;5067142;28;20067;-72
2021/12/18 11:32:18;;;;;;;8.85;4.80;;;5.00;96.30;;;;;;5066962;28;20025;-72
2021/12/18 11:34:45;;;;;;;11.85;5.35;;;5.20;96.40;;;;;;5067215;28;20028;-72
2021/12/18 11:37:13;;;;;;;10.57;5.05;;;5.20;95.90;;;;;;5065832;28;20497;-72
2021/12/18 11:39:40;;;;;;;10.75;4.90;;;5.20;95.80;;;;;;5067112;28;20036;-72
2021/12/18 11:42:07;;;;;;;9.93;5.25;;;5.30;95.70;;;;;;5065436;28;20380;-72
2021/12/18 11:44:33;;;;;;;10.18;5.32;;;5.30;95.40;;;;;;5055853;28;20561;-72
2021/12/18 11:47:20;;;;;;;8.05;5.32;;;5.40;95.20;;;;;;5050167;28;20040;-72
2021/12/18 11:49:46;;;;;;;10.88;4.72;;;5.40;95.00;;;;;;5047012;28;20070;-72
2021/12/18 11:52:11;;;;;;;15.77;4.95;;;5.70;95.00;;;;;;5065659;28;20029;-72
2021/12/18 11:54:51;;;;;;;10.60;5.90;;;5.80;95.00;;;;;;5063786;28;20039;-72
2021/12/18 11:57:48;;;;;;;10.55;6.13;;;5.80;94.90;;;;;;5057881;28;20024;-72
2021/12/18 12:00:23;;;;;;;10.02;5.45;;;5.90;94.70;;;;;;5046733;28;20079;-72
2021/12/18 12:02:56;;;;;;;12.80;6.40;;;5.80;94.60;;;;;;5066875;28;20032;-72
2021/12/18 12:05:43;;;;;;;8.68;5.00;;;5.80;94.80;;;;;;5067109;28;20021;-72
2021/12/18 12:08:20;;;;;;;8.30;4.75;;;5.90;95.10;;;;;;5065691;28;20117;-72
2021/12/18 12:11:17;;;;;;;7.90;4.60;;;5.70;94.30;;;;;;5067217;28;20483;-72
2021/12/18 12:14:09;;;;;;;14.13;4.60;;;5.80;94.70;;;;;;5067086;28;20024;-72
2021/12/18 12:16:44;;;;;;;8.05;4.35;;;5.90;94.10;;;;;;5067122;28;20035;-72
2021/12/18 12:19:12;;;;;;;16.17;4.88;;;5.80;93.90;;;;;;5050724;28;20111;-72
2021/12/18 12:21:44;;;;;;;7.47;4.68;;;5.90;94.30;;;;;;5047125;28;20021;-72
2021/12/18 12:24:11;;;;;;;8.32;4.28;;;5.80;93.90;;;;;;5046705;28;20043;-72
2021/12/18 12:26:37;;;;;;;6.32;3.97;;;5.90;94.10;;;;;;5054848;28;20108;-72
2021/12/18 12:29:05;;;;;;;8.52;4.68;;;5.90;94.10;;;;;;5051852;28;20104;-72
2021/12/18 12:31:31;;;;;;;8.18;4.30;;;6.00;94.00;;;;;;5066641;28;20028;-72
2021/12/18 12:34:27;;;;;;;7.18;4.30;;;6.00;94.10;;;;;;5067036;28;20143;-72
2021/12/18 12:36:58;;;;;;;8.32;4.03;;;6.10;93.80;;;;;;5043519;28;20037;-72
2021/12/18 12:39:25;;;;;;;8.00;4.25;;;6.20;94.00;;;;;;5046599;28;20021;-72
2021/12/18 12:41:52;;;;;;;8.70;4.47;;;6.20;93.60;;;;;;5057066;28;20078;-72
2021/12/18 12:44:28;;;;;;;9.52;4.55;;;6.30;93.50;;;;;;5046253;28;20037;-72
2021/12/18 12:47:12;;;;;;;10.18;3.55;;;6.40;94.00;;;;;;5046688;28;20029;-72
2021/12/18 12:49:38;;;;;;;6.75;3.83;;;6.30;94.00;;;;;;5057934;28;20056;-72
2021/12/18 12:52:08;;;;;;;5.72;3.13;;;6.30;94.00;;;;;;5066438;28;20075;-72
2021/12/18 12:54:43;;;;;;;18.58;10.82;;;6.40;93.80;;;;;;5065741;28;20035;-72
2021/12/18 12:57:27;;;;;;;17.00;8.70;;;6.50;93.80;;;;;;5061543;28;20021;-72
2021/12/18 13:00:17;;;;;;;8.20;4.07;;;6.50;93.90;;;;;;5057965;28;20038;-72
2021/12/18 13:03:00;;;;;;;13.13;6.75;;;6.50;93.70;;;;;;5054770;28;20029;-72
2021/12/18 13:05:28;;;;;;;12.85;7.32;;;6.30;93.80;;;;;;5069021;28;20530;-72
2021/12/18 13:07:55;;;;;;;8.30;4.55;;;6.40;93.80;;;;;;5070149;28;20033;-72
2021/12/18 13:10:23;;;;;;;8.18;5.18;;;6.40;94.00;;;;;;5052447;28;20025;-72
2021/12/18 13:12:56;;;;;;;8.45;5.15;;;6.40;93.40;;;;;;5050200;28;20104;-72
2021/12/18 13:15:23;;;;;;;10.38;4.93;;;6.50;93.60;;;;;;5059724;28;20107;-72
2021/12/18 13:18:07;;;;;;;36.17;14.88;;;6.40;93.70;;;;;;5062175;28;20380;-72
2021/12/18 13:20:55;;;;;;;10.00;5.95;;;6.50;93.90;;;;;;5067697;28;20020;-72
2021/12/18 13:23:23;;;;;;;7.45;3.92;;;6.50;93.50;;;;;;5058454;28;20040;-72
2021/12/18 13:25:55;;;;;;;6.70;3.53;;;6.50;93.50;;;;;;5064971;28;20464;-72
2021/12/18 13:28:22;;;;;;;19.67;9.73;;;6.50;93.50;;;;;;5049739;28;20028;-72
2021/12/18 13:30:51;;;;;;;11.13;6.00;;;6.50;93.50;;;;;;5049918;28;20550;-72
2021/12/18 13:33:24;;;;;;;7.45;4.25;;;6.50;93.60;;;;;;5056824;28;20013;-72
2021/12/18 13:36:01;;;;;;;8.80;5.25;;;6.50;93.60;;;;;;5052993;28;20484;-72
2021/12/18 13:38:40;;;;;;;8.60;4.55;;;6.70;93.60;;;;;;5047578;28;20025;-72
2021/12/18 13:41:13;;;;;;;9.18;4.72;;;6.70;93.70;;;;;;5049765;28;20032;-72
2021/12/18 13:43:41;;;;;;;8.97;5.20;;;6.70;93.60;;;;;;5060630;28;20128;-72
2021/12/18 13:46:11;;;;;;;9.00;5.65;;;6.70;93.60;;;;;;5051244;28;20333;-72
2021/12/18 13:48:40;;;;;;;11.05;5.45;;;6.70;93.90;;;;;;5059044;28;20040;-72
2021/12/18 13:51:07;;;;;;;10.95;5.15;;;6.80;94.10;;;;;;5049634;28;20770;-72